sensor_id;sensor_type;location;lat;lon;timestamp;P1;durP1;ratioP1;P2;durP2;ratioP2
32236;SDS011;18726;44.732;10.550;2023-07-20T00:02:50;13.02;;;6.00;;
32236;SDS011;18726;44.732;10.550;2023-07-20T00:05:54;10.88;;;6.15;;
32236;SDS011;18726;44.732;10.550;2023-07-20T00:08:57;8.48;;;5.97;;
32236;SDS011;18726;44.732;10.550;2023-07-20T00:12:02;10.02;;;6.28;;
32236;SDS011;18726;44.732;10.550;2023-07-20T00:15:06;12.07;;;5.82;;
32236;SDS011;18726;44.732;10.550;2023-07-20T00:18:09;10.60;;;5.43;;
32236;SDS011;18726;44.732;10.550;2023-07-20T00:21:13;14.55;;;5.68;;
32236;SDS011;18726;44.732;10.550;2023-07-20T00:24:17;7.63;;;5.65;;
32236;SDS011;18726;44.732;10.550;2023-07-20T00:27:21;6.28;;;4.70;;
32236;SDS011;18726;44.732;10.550;2023-07-20T00:30:24;10.38;;;5.85;;
32236;SDS011;18726;44.732;10.550;2023-07-20T00:33:28;7.90;;;5.53;;
32236;SDS011;18726;44.732;10.550;2023-07-20T00:36:32;8.85;;;5.82;;
32236;SDS011;18726;44.732;10.550;2023-07-20T00:39:39;7.78;;;5.97;;
32236;SDS011;18726;44.732;10.550;2023-07-20T00:42:43;7.82;;;4.82;;
32236;SDS011;18726;44.732;10.550;2023-07-20T00:45:47;11.52;;;5.50;;
32236;SDS011;18726;44.732;10.550;2023-07-20T00:48:50;9.18;;;5.53;;
32236;SDS011;18726;44.732;10.550;2023-07-20T00:51:55;5.30;;;4.75;;
32236;SDS011;18726;44.732;10.550;2023-07-20T00:54:59;6.90;;;4.40;;
32236;SDS011;18726;44.732;10.550;2023-07-20T00:58:03;8.85;;;4.53;;
32236;SDS011;18726;44.732;10.550;2023-07-20T01:01:07;7.80;;;4.85;;
32236;SDS011;18726;44.732;10.550;2023-07-20T01:04:11;9.80;;;5.93;;
32236;SDS011;18726;44.732;10.550;2023-07-20T01:10:33;6.90;;;5.25;;
32236;SDS011;18726;44.732;10.550;2023-07-20T01:14:02;14.35;;;5.70;;
32236;SDS011;18726;44.732;10.550;2023-07-20T01:17:06;9.52;;;5.55;;
32236;SDS011;18726;44.732;10.550;2023-07-20T01:20:14;6.75;;;5.07;;
32236;SDS011;18726;44.732;10.550;2023-07-20T01:33:30;6.45;;;5.28;;
32236;SDS011;18726;44.732;10.550;2023-07-20T01:36:35;15.70;;;5.90;;
32236;SDS011;18726;44.732;10.550;2023-07-20T01:39:41;11.20;;;6.03;;
32236;SDS011;18726;44.732;10.550;2023-07-20T01:42:47;11.73;;;6.55;;
32236;SDS011;18726;44.732;10.550;2023-07-20T01:45:51;10.07;;;5.35;;
32236;SDS011;18726;44.732;10.550;2023-07-20T01:48:55;8.52;;;6.07;;
32236;SDS011;18726;44.732;10.550;2023-07-20T01:51:59;13.55;;;7.03;;
32236;SDS011;18726;44.732;10.550;2023-07-20T01:55:03;8.82;;;7.22;;
32236;SDS011;18726;44.732;10.550;2023-07-20T01:58:08;9.68;;;8.02;;
32236;SDS011;18726;44.732;10.550;2023-07-20T02:01:12;12.95;;;8.27;;
32236;SDS011;18726;44.732;10.550;2023-07-20T02:04:15;13.93;;;8.60;;
32236;SDS011;18726;44.732;10.550;2023-07-20T02:07:19;11.52;;;7.70;;
32236;SDS011;18726;44.732;10.550;2023-07-20T02:10:23;9.00;;;7.18;;
32236;SDS011;18726;44.732;10.550;2023-07-20T02:13:27;15.20;;;9.13;;
32236;SDS011;18726;44.732;10.550;2023-07-20T02:16:30;10.65;;;7.68;;
32236;SDS011;18726;44.732;10.550;2023-07-20T02:19:34;16.55;;;9.52;;
32236;SDS011;18726;44.732;10.550;2023-07-20T02:22:38;13.75;;;9.23;;
32236;SDS011;18726;44.732;10.550;2023-07-20T02:25:42;15.60;;;9.57;;
32236;SDS011;18726;44.732;10.550;2023-07-20T02:28:46;16.30;;;10.60;;
32236;SDS011;18726;44.732;10.550;2023-07-20T02:31:50;13.63;;;10.27;;
32236;SDS011;18726;44.732;10.550;2023-07-20T02:34:53;12.80;;;10.38;;
32236;SDS011;18726;44.732;10.550;2023-07-20T02:37:57;12.63;;;11.32;;
32236;SDS011;18726;44.732;10.550;2023-07-20T02:41:01;16.67;;;12.32;;
32236;SDS011;18726;44.732;10.550;2023-07-20T02:44:06;13.32;;;11.27;;
32236;SDS011;18726;44.732;10.550;2023-07-20T02:47:09;15.48;;;11.88;;
32236;SDS011;18726;44.732;10.550;2023-07-20T02:50:13;15.52;;;12.05;;
32236;SDS011;18726;44.732;10.550;2023-07-20T02:53:17;26.25;;;12.00;;
32236;SDS011;18726;44.732;10.550;2023-07-20T02:56:21;18.65;;;11.65;;
32236;SDS011;18726;44.732;10.550;2023-07-20T02:59:26;16.60;;;10.27;;
32236;SDS011;18726;44.732;10.550;2023-07-20T03:02:30;16.20;;;9.75;;
32236;SDS011;18726;44.732;10.550;2023-07-20T03:05:34;12.13;;;10.25;;
32236;SDS011;18726;44.732;10.550;2023-07-20T03:08:37;10.80;;;8.40;;
32236;SDS011;18726;44.732;10.550;2023-07-20T03:11:40;19.00;;;11.65;;
32236;SDS011;18726;44.732;10.550;2023-07-20T03:14:44;15.65;;;10.35;;
32236;SDS011;18726;44.732;10.550;2023-07-20T03:17:49;15.25;;;10.93;;
32236;SDS011;18726;44.732;10.550;2023-07-20T03:20:53;12.40;;;10.10;;
32236;SDS011;18726;44.732;10.550;2023-07-20T03:23:57;14.68;;;8.07;;
32236;SDS011;18726;44.732;10.550;2023-07-20T03:27:01;9.10;;;7.53;;
32236;SDS011;18726;44.732;10.550;2023-07-20T03:30:05;15.13;;;8.23;;
32236;SDS011;18726;44.732;10.550;2023-07-20T03:33:10;10.75;;;9.02;;
32236;SDS011;18726;44.732;10.550;2023-07-20T03:36:14;11.77;;;8.82;;
32236;SDS011;18726;44.732;10.550;2023-07-20T03:39:18;12.73;;;8.45;;
32236;SDS011;18726;44.732;10.550;2023-07-20T03:42:22;16.77;;;8.75;;
32236;SDS011;18726;44.732;10.550;2023-07-20T03:45:26;9.68;;;8.23;;
32236;SDS011;18726;44.732;10.550;2023-07-20T03:48:30;17.95;;;8.50;;
32236;SDS011;18726;44.732;10.550;2023-07-20T03:51:34;17.80;;;8.50;;
32236;SDS011;18726;44.732;10.550;2023-07-20T03:54:38;13.48;;;8.25;;
32236;SDS011;18726;44.732;10.550;2023-07-20T03:57:41;11.85;;;8.50;;
32236;SDS011;18726;44.732;10.550;2023-07-20T04:00:46;15.38;;;8.65;;
32236;SDS011;18726;44.732;10.550;2023-07-20T04:03:51;8.57;;;6.60;;
32236;SDS011;18726;44.732;10.550;2023-07-20T04:06:55;12.00;;;7.70;;
32236;SDS011;18726;44.732;10.550;2023-07-20T04:09:58;10.88;;;7.15;;
32236;SDS011;18726;44.732;10.550;2023-07-20T04:13:02;9.45;;;6.97;;
32236;SDS011;18726;44.732;10.550;2023-07-20T04:16:06;7.55;;;6.07;;
32236;SDS011;18726;44.732;10.550;2023-07-20T04:19:10;7.47;;;6.38;;
32236;SDS011;18726;44.732;10.550;2023-07-20T04:22:13;10.90;;;7.10;;
32236;SDS011;18726;44.732;10.550;2023-07-20T04:25:19;9.10;;;6.18;;
32236;SDS011;18726;44.732;10.550;2023-07-20T04:28:23;13.38;;;6.75;;
32236;SDS011;18726;44.732;10.550;2023-07-20T04:31:27;5.65;;;5.13;;
32236;SDS011;18726;44.732;10.550;2023-07-20T04:34:31;6.53;;;5.13;;
32236;SDS011;18726;44.732;10.550;2023-07-20T04:37:35;9.48;;;5.70;;
32236;SDS011;18726;44.732;10.550;2023-07-20T04:40:39;11.43;;;6.57;;
32236;SDS011;18726;44.732;10.550;2023-07-20T04:43:43;9.80;;;6.97;;
32236;SDS011;18726;44.732;10.550;2023-07-20T04:46:49;11.23;;;7.25;;
32236;SDS011;18726;44.732;10.550;2023-07-20T04:49:53;11.98;;;6.47;;
32236;SDS011;18726;44.732;10.550;2023-07-20T04:52:57;8.85;;;6.00;;
32236;SDS011;18726;44.732;10.550;2023-07-20T04:56:00;12.75;;;6.68;;
32236;SDS011;18726;44.732;10.550;2023-07-20T04:59:05;9.43;;;6.18;;
32236;SDS011;18726;44.732;10.550;2023-07-20T05:02:09;6.15;;;5.30;;
32236;SDS011;18726;44.732;10.550;2023-07-20T05:05:12;10.63;;;5.97;;
32236;SDS011;18726;44.732;10.550;2023-07-20T05:08:16;9.90;;;6.70;;
32236;SDS011;18726;44.732;10.550;2023-07-20T05:11:20;13.32;;;7.97;;
32236;SDS011;18726;44.732;10.550;2023-07-20T05:14:23;11.13;;;6.80;;
32236;SDS011;18726;44.732;10.550;2023-07-20T05:17:28;11.50;;;6.88;;
32236;SDS011;18726;44.732;10.550;2023-07-20T05:20:32;10.43;;;6.57;;
32236;SDS011;18726;44.732;10.550;2023-07-20T05:23:37;11.82;;;7.50;;
32236;SDS011;18726;44.732;10.550;2023-07-20T05:26:41;13.40;;;8.25;;
32236;SDS011;18726;44.732;10.550;2023-07-20T05:29:45;13.95;;;7.72;;
32236;SDS011;18726;44.732;10.550;2023-07-20T05:32:49;18.55;;;7.60;;
32236;SDS011;18726;44.732;10.550;2023-07-20T05:35:55;13.90;;;7.25;;
32236;SDS011;18726;44.732;10.550;2023-07-20T05:38:59;14.15;;;8.52;;
32236;SDS011;18726;44.732;10.550;2023-07-20T05:42:02;11.27;;;8.75;;
32236;SDS011;18726;44.732;10.550;2023-07-20T05:45:06;11.95;;;7.82;;
32236;SDS011;18726;44.732;10.550;2023-07-20T05:48:10;20.08;;;9.15;;
32236;SDS011;18726;44.732;10.550;2023-07-20T05:51:14;25.48;;;9.82;;
32236;SDS011;18726;44.732;10.550;2023-07-20T05:54:18;19.23;;;8.90;;
32236;SDS011;18726;44.732;10.550;2023-07-20T05:57:22;13.73;;;8.77;;
32236;SDS011;18726;44.732;10.550;2023-07-20T06:00:26;18.00;;;9.98;;
32236;SDS011;18726;44.732;10.550;2023-07-20T06:03:30;15.95;;;8.20;;
32236;SDS011;18726;44.732;10.550;2023-07-20T06:06:33;11.60;;;6.38;;
32236;SDS011;18726;44.732;10.550;2023-07-20T06:09:37;10.52;;;7.28;;
32236;SDS011;18726;44.732;10.550;2023-07-20T06:12:41;11.68;;;6.32;;
32236;SDS011;18726;44.732;10.550;2023-07-20T06:15:44;11.07;;;6.07;;
32236;SDS011;18726;44.732;10.550;2023-07-20T06:18:48;12.60;;;6.20;;
32236;SDS011;18726;44.732;10.550;2023-07-20T06:21:52;15.02;;;6.65;;
32236;SDS011;18726;44.732;10.550;2023-07-20T06:24:56;10.43;;;6.75;;
32236;SDS011;18726;44.732;10.550;2023-07-20T06:27:59;11.60;;;6.13;;
32236;SDS011;18726;44.732;10.550;2023-07-20T06:31:03;8.48;;;5.20;;
32236;SDS011;18726;44.732;10.550;2023-07-20T06:34:07;9.55;;;5.30;;
32236;SDS011;18726;44.732;10.550;2023-07-20T06:37:11;9.55;;;4.50;;
32236;SDS011;18726;44.732;10.550;2023-07-20T06:40:14;6.28;;;5.55;;
32236;SDS011;18726;44.732;10.550;2023-07-20T06:43:17;8.25;;;4.63;;
32236;SDS011;18726;44.732;10.550;2023-07-20T06:46:21;10.27;;;5.10;;
32236;SDS011;18726;44.732;10.550;2023-07-20T06:49:25;9.75;;;4.80;;
32236;SDS011;18726;44.732;10.550;2023-07-20T06:52:29;8.35;;;4.43;;
32236;SDS011;18726;44.732;10.550;2023-07-20T06:55:33;7.75;;;3.65;;
32236;SDS011;18726;44.732;10.550;2023-07-20T06:58:36;9.55;;;4.75;;
32236;SDS011;18726;44.732;10.550;2023-07-20T07:01:40;7.45;;;4.38;;
32236;SDS011;18726;44.732;10.550;2023-07-20T07:04:43;8.65;;;4.10;;
32236;SDS011;18726;44.732;10.550;2023-07-20T07:07:47;8.25;;;4.10;;
32236;SDS011;18726;44.732;10.550;2023-07-20T07:10:52;6.70;;;3.50;;
32236;SDS011;18726;44.732;10.550;2023-07-20T07:13:55;11.70;;;4.70;;
32236;SDS011;18726;44.732;10.550;2023-07-20T07:16:59;11.52;;;4.55;;
32236;SDS011;18726;44.732;10.550;2023-07-20T07:20:03;13.75;;;5.00;;
32236;SDS011;18726;44.732;10.550;2023-07-20T07:23:07;10.20;;;4.93;;
32236;SDS011;18726;44.732;10.550;2023-07-20T07:26:11;12.48;;;5.57;;
32236;SDS011;18726;44.732;10.550;2023-07-20T07:29:15;11.15;;;5.82;;
32236;SDS011;18726;44.732;10.550;2023-07-20T07:32:18;9.05;;;5.13;;
32236;SDS011;18726;44.732;10.550;2023-07-20T07:35:21;8.02;;;5.13;;
32236;SDS011;18726;44.732;10.550;2023-07-20T07:38:25;10.95;;;5.80;;
32236;SDS011;18726;44.732;10.550;2023-07-20T07:41:28;15.73;;;6.07;;
32236;SDS011;18726;44.732;10.550;2023-07-20T07:44:32;14.77;;;5.40;;
32236;SDS011;18726;44.732;10.550;2023-07-20T07:47:35;8.82;;;5.07;;
32236;SDS011;18726;44.732;10.550;2023-07-20T07:50:39;15.38;;;6.10;;
32236;SDS011;18726;44.732;10.550;2023-07-20T07:53:46;11.05;;;6.10;;
32236;SDS011;18726;44.732;10.550;2023-07-20T07:56:50;11.07;;;6.05;;
32236;SDS011;18726;44.732;10.550;2023-07-20T07:59:54;12.95;;;5.97;;
32236;SDS011;18726;44.732;10.550;2023-07-20T08:02:58;12.38;;;6.72;;
32236;SDS011;18726;44.732;10.550;2023-07-20T08:06:02;11.77;;;6.15;;
32236;SDS011;18726;44.732;10.550;2023-07-20T08:09:08;16.20;;;7.55;;
32236;SDS011;18726;44.732;10.550;2023-07-20T08:12:12;15.73;;;6.13;;
32236;SDS011;18726;44.732;10.550;2023-07-20T08:15:16;13.82;;;6.50;;
32236;SDS011;18726;44.732;10.550;2023-07-20T08:18:20;9.65;;;6.32;;
32236;SDS011;18726;44.732;10.550;2023-07-20T08:21:24;7.05;;;5.70;;
32236;SDS011;18726;44.732;10.550;2023-07-20T08:24:27;11.23;;;5.93;;
32236;SDS011;18726;44.732;10.550;2023-07-20T08:27:30;15.18;;;6.50;;
32236;SDS011;18726;44.732;10.550;2023-07-20T08:30:47;17.10;;;5.93;;
32236;SDS011;18726;44.732;10.550;2023-07-20T08:33:52;11.73;;;6.10;;
32236;SDS011;18726;44.732;10.550;2023-07-20T08:36:57;14.10;;;6.50;;
32236;SDS011;18726;44.732;10.550;2023-07-20T08:40:02;16.92;;;6.57;;
32236;SDS011;18726;44.732;10.550;2023-07-20T08:43:07;11.35;;;6.03;;
32236;SDS011;18726;44.732;10.550;2023-07-20T08:46:13;11.57;;;4.97;;
32236;SDS011;18726;44.732;10.550;2023-07-20T08:49:18;10.50;;;5.38;;
32236;SDS011;18726;44.732;10.550;2023-07-20T08:52:22;7.93;;;5.55;;
32236;SDS011;18726;44.732;10.550;2023-07-20T08:55:26;11.43;;;5.57;;
32236;SDS011;18726;44.732;10.550;2023-07-20T08:58:30;11.90;;;6.13;;
32236;SDS011;18726;44.732;10.550;2023-07-20T09:01:35;9.32;;;5.65;;
32236;SDS011;18726;44.732;10.550;2023-07-20T09:04:42;9.85;;;5.60;;
32236;SDS011;18726;44.732;10.550;2023-07-20T09:07:46;12.05;;;5.38;;
32236;SDS011;18726;44.732;10.550;2023-07-20T09:10:50;8.70;;;5.20;;
32236;SDS011;18726;44.732;10.550;2023-07-20T09:14:07;13.30;;;5.78;;
32236;SDS011;18726;44.732;10.550;2023-07-20T09:17:15;9.57;;;5.53;;
32236;SDS011;18726;44.732;10.550;2023-07-20T09:20:19;15.57;;;6.55;;
32236;SDS011;18726;44.732;10.550;2023-07-20T09:23:31;11.35;;;6.30;;
32236;SDS011;18726;44.732;10.550;2023-07-20T09:26:41;14.55;;;6.18;;
32236;SDS011;18726;44.732;10.550;2023-07-20T09:29:49;13.02;;;6.10;;
32236;SDS011;18726;44.732;10.550;2023-07-20T09:32:53;13.95;;;6.38;;
32236;SDS011;18726;44.732;10.550;2023-07-20T09:36:01;16.35;;;7.13;;
32236;SDS011;18726;44.732;10.550;2023-07-20T09:39:05;20.58;;;6.90;;
32236;SDS011;18726;44.732;10.550;2023-07-20T09:42:09;16.95;;;7.85;;
32236;SDS011;18726;44.732;10.550;2023-07-20T09:45:15;13.30;;;6.82;;
32236;SDS011;18726;44.732;10.550;2023-07-20T09:48:19;12.32;;;6.50;;
32236;SDS011;18726;44.732;10.550;2023-07-20T09:51:27;12.43;;;6.72;;
32236;SDS011;18726;44.732;10.550;2023-07-20T09:54:32;13.27;;;5.93;;
32236;SDS011;18726;44.732;10.550;2023-07-20T09:57:36;13.43;;;7.45;;
32236;SDS011;18726;44.732;10.550;2023-07-20T10:00:40;11.18;;;6.57;;
32236;SDS011;18726;44.732;10.550;2023-07-20T10:03:54;20.02;;;7.00;;
32236;SDS011;18726;44.732;10.550;2023-07-20T10:07:02;13.18;;;6.78;;
32236;SDS011;18726;44.732;10.550;2023-07-20T10:10:11;9.30;;;6.05;;
32236;SDS011;18726;44.732;10.550;2023-07-20T10:13:21;17.45;;;6.78;;
32236;SDS011;18726;44.732;10.550;2023-07-20T10:16:31;14.30;;;6.03;;
32236;SDS011;18726;44.732;10.550;2023-07-20T10:22:48;12.15;;;6.53;;
32236;SDS011;18726;44.732;10.550;2023-07-20T10:25:54;15.35;;;7.85;;
32236;SDS011;18726;44.732;10.550;2023-07-20T10:29:00;16.33;;;7.47;;
32236;SDS011;18726;44.732;10.550;2023-07-20T10:32:05;14.70;;;6.72;;
32236;SDS011;18726;44.732;10.550;2023-07-20T10:35:13;13.10;;;6.38;;
32236;SDS011;18726;44.732;10.550;2023-07-20T10:38:18;12.13;;;7.03;;
32236;SDS011;18726;44.732;10.550;2023-07-20T10:41:27;9.38;;;6.60;;
32236;SDS011;18726;44.732;10.550;2023-07-20T10:44:32;10.63;;;7.28;;
32236;SDS011;18726;44.732;10.550;2023-07-20T10:47:44;11.57;;;6.50;;
32236;SDS011;18726;44.732;10.550;2023-07-20T10:51:08;11.98;;;7.30;;
32236;SDS011;18726;44.732;10.550;2023-07-20T10:57:21;14.23;;;6.68;;
32236;SDS011;18726;44.732;10.550;2023-07-20T11:00:33;19.40;;;7.97;;
32236;SDS011;18726;44.732;10.550;2023-07-20T11:03:38;12.82;;;8.00;;
32236;SDS011;18726;44.732;10.550;2023-07-20T11:06:45;13.10;;;7.03;;
32236;SDS011;18726;44.732;10.550;2023-07-20T11:09:49;10.95;;;6.03;;
32236;SDS011;18726;44.732;10.550;2023-07-20T11:19:42;9.63;;;6.05;;
32236;SDS011;18726;44.732;10.550;2023-07-20T11:22:46;10.77;;;6.75;;
32236;SDS011;18726;44.732;10.550;2023-07-20T11:25:51;12.43;;;7.05;;
32236;SDS011;18726;44.732;10.550;2023-07-20T11:28:55;10.32;;;6.38;;
32236;SDS011;18726;44.732;10.550;2023-07-20T11:31:59;13.40;;;6.57;;
32236;SDS011;18726;44.732;10.550;2023-07-20T11:35:05;14.55;;;6.32;;
32236;SDS011;18726;44.732;10.550;2023-07-20T11:38:09;11.27;;;5.85;;
32236;SDS011;18726;44.732;10.550;2023-07-20T11:41:13;19.92;;;7.05;;
32236;SDS011;18726;44.732;10.550;2023-07-20T11:44:17;10.27;;;7.00;;
32236;SDS011;18726;44.732;10.550;2023-07-20T11:47:21;10.43;;;7.55;;
32236;SDS011;18726;44.732;10.550;2023-07-20T11:50:24;9.73;;;6.90;;
32236;SDS011;18726;44.732;10.550;2023-07-20T11:53:28;18.90;;;7.45;;
32236;SDS011;18726;44.732;10.550;2023-07-20T11:56:31;16.50;;;7.93;;
32236;SDS011;18726;44.732;10.550;2023-07-20T11:59:35;11.55;;;7.05;;
32236;SDS011;18726;44.732;10.550;2023-07-20T12:02:39;13.68;;;7.80;;
32236;SDS011;18726;44.732;10.550;2023-07-20T12:05:43;10.00;;;6.57;;
32236;SDS011;18726;44.732;10.550;2023-07-20T12:08:47;10.98;;;7.15;;
32236;SDS011;18726;44.732;10.550;2023-07-20T12:11:51;11.20;;;7.63;;
32236;SDS011;18726;44.732;10.550;2023-07-20T12:14:54;13.43;;;6.88;;
32236;SDS011;18726;44.732;10.550;2023-07-20T12:17:58;19.73;;;7.38;;
32236;SDS011;18726;44.732;10.550;2023-07-20T12:21:03;12.73;;;7.60;;
32236;SDS011;18726;44.732;10.550;2023-07-20T12:24:08;12.07;;;7.15;;
32236;SDS011;18726;44.732;10.550;2023-07-20T12:27:13;11.05;;;7.63;;
32236;SDS011;18726;44.732;10.550;2023-07-20T12:30:19;9.35;;;6.03;;
32236;SDS011;18726;44.732;10.550;2023-07-20T12:33:23;13.00;;;7.78;;
32236;SDS011;18726;44.732;10.550;2023-07-20T12:36:27;13.60;;;7.75;;
32236;SDS011;18726;44.732;10.550;2023-07-20T12:39:30;14.32;;;9.20;;
32236;SDS011;18726;44.732;10.550;2023-07-20T12:42:34;12.07;;;8.20;;
32236;SDS011;18726;44.732;10.550;2023-07-20T12:45:37;19.50;;;8.25;;
32236;SDS011;18726;44.732;10.550;2023-07-20T12:48:41;11.48;;;6.55;;
32236;SDS011;18726;44.732;10.550;2023-07-20T12:51:45;11.30;;;7.20;;
32236;SDS011;18726;44.732;10.550;2023-07-20T12:54:48;9.32;;;7.75;;
32236;SDS011;18726;44.732;10.550;2023-07-20T12:57:52;14.02;;;8.68;;
32236;SDS011;18726;44.732;10.550;2023-07-20T13:00:55;14.70;;;7.88;;
32236;SDS011;18726;44.732;10.550;2023-07-20T13:03:59;12.63;;;8.00;;
32236;SDS011;18726;44.732;10.550;2023-07-20T13:07:02;10.20;;;7.07;;
32236;SDS011;18726;44.732;10.550;2023-07-20T13:10:06;13.73;;;7.60;;
32236;SDS011;18726;44.732;10.550;2023-07-20T13:13:11;19.20;;;8.60;;
32236;SDS011;18726;44.732;10.550;2023-07-20T13:16:15;11.20;;;7.55;;
32236;SDS011;18726;44.732;10.550;2023-07-20T13:19:19;13.93;;;7.53;;
32236;SDS011;18726;44.732;10.550;2023-07-20T13:22:24;14.27;;;7.43;;
32236;SDS011;18726;44.732;10.550;2023-07-20T13:25:28;11.85;;;7.50;;
32236;SDS011;18726;44.732;10.550;2023-07-20T13:28:32;12.57;;;8.10;;
32236;SDS011;18726;44.732;10.550;2023-07-20T13:31:35;17.05;;;8.85;;
32236;SDS011;18726;44.732;10.550;2023-07-20T13:34:39;11.77;;;8.15;;
32236;SDS011;18726;44.732;10.550;2023-07-20T13:37:43;11.30;;;7.65;;
32236;SDS011;18726;44.732;10.550;2023-07-20T13:40:46;13.70;;;7.43;;
32236;SDS011;18726;44.732;10.550;2023-07-20T13:43:49;13.45;;;8.13;;
32236;SDS011;18726;44.732;10.550;2023-07-20T13:46:53;15.07;;;8.65;;
32236;SDS011;18726;44.732;10.550;2023-07-20T13:49:56;13.52;;;8.60;;
32236;SDS011;18726;44.732;10.550;2023-07-20T13:52:59;11.95;;;8.00;;
32236;SDS011;18726;44.732;10.550;2023-07-20T13:56:06;14.52;;;8.35;;
32236;SDS011;18726;44.732;10.550;2023-07-20T13:59:09;10.98;;;7.28;;
32236;SDS011;18726;44.732;10.550;2023-07-20T14:02:14;12.82;;;8.70;;
32236;SDS011;18726;44.732;10.550;2023-07-20T14:05:18;20.10;;;10.07;;
32236;SDS011;18726;44.732;10.550;2023-07-20T14:08:22;11.65;;;8.00;;
32236;SDS011;18726;44.732;10.550;2023-07-20T14:11:26;16.77;;;8.05;;
32236;SDS011;18726;44.732;10.550;2023-07-20T14:14:30;16.75;;;8.95;;
32236;SDS011;18726;44.732;10.550;2023-07-20T14:17:34;13.93;;;8.20;;
32236;SDS011;18726;44.732;10.550;2023-07-20T14:20:38;14.13;;;8.75;;
32236;SDS011;18726;44.732;10.550;2023-07-20T14:23:41;11.05;;;7.00;;
32236;SDS011;18726;44.732;10.550;2023-07-20T14:26:45;13.23;;;7.07;;
32236;SDS011;18726;44.732;10.550;2023-07-20T14:29:51;11.25;;;8.07;;
32236;SDS011;18726;44.732;10.550;2023-07-20T14:32:56;14.95;;;7.72;;
32236;SDS011;18726;44.732;10.550;2023-07-20T14:36:00;18.83;;;8.88;;
32236;SDS011;18726;44.732;10.550;2023-07-20T14:39:04;15.25;;;8.20;;
32236;SDS011;18726;44.732;10.550;2023-07-20T14:42:09;12.35;;;8.07;;
32236;SDS011;18726;44.732;10.550;2023-07-20T14:45:12;13.40;;;8.50;;
32236;SDS011;18726;44.732;10.550;2023-07-20T14:48:16;10.85;;;7.72;;
32236;SDS011;18726;44.732;10.550;2023-07-20T14:51:19;15.07;;;8.40;;
32236;SDS011;18726;44.732;10.550;2023-07-20T14:54:23;16.60;;;8.77;;
32236;SDS011;18726;44.732;10.550;2023-07-20T14:57:26;15.63;;;8.50;;
32236;SDS011;18726;44.732;10.550;2023-07-20T15:00:30;11.10;;;7.38;;
32236;SDS011;18726;44.732;10.550;2023-07-20T15:03:34;15.30;;;8.23;;
32236;SDS011;18726;44.732;10.550;2023-07-20T15:06:37;15.50;;;8.20;;
32236;SDS011;18726;44.732;10.550;2023-07-20T15:09:41;19.77;;;8.00;;
32236;SDS011;18726;44.732;10.550;2023-07-20T15:12:45;13.82;;;7.72;;
32236;SDS011;18726;44.732;10.550;2023-07-20T15:15:49;18.30;;;8.98;;
32236;SDS011;18726;44.732;10.550;2023-07-20T15:18:52;13.45;;;9.05;;
32236;SDS011;18726;44.732;10.550;2023-07-20T15:21:56;13.45;;;8.38;;
32236;SDS011;18726;44.732;10.550;2023-07-20T15:25:00;12.55;;;9.02;;
32236;SDS011;18726;44.732;10.550;2023-07-20T15:28:07;12.32;;;8.25;;
32236;SDS011;18726;44.732;10.550;2023-07-20T15:31:10;15.70;;;8.95;;
32236;SDS011;18726;44.732;10.550;2023-07-20T15:34:14;17.25;;;9.07;;
32236;SDS011;18726;44.732;10.550;2023-07-20T15:37:18;11.57;;;8.23;;
32236;SDS011;18726;44.732;10.550;2023-07-20T15:40:22;16.42;;;8.68;;
32236;SDS011;18726;44.732;10.550;2023-07-20T15:43:26;12.10;;;8.27;;
32236;SDS011;18726;44.732;10.550;2023-07-20T15:49:43;13.82;;;9.27;;
32236;SDS011;18726;44.732;10.550;2023-07-20T15:52:47;14.20;;;9.10;;
32236;SDS011;18726;44.732;10.550;2023-07-20T15:55:54;13.07;;;8.85;;
32236;SDS011;18726;44.732;10.550;2023-07-20T15:58:59;13.55;;;8.60;;
32236;SDS011;18726;44.732;10.550;2023-07-20T16:02:03;17.98;;;8.60;;
32236;SDS011;18726;44.732;10.550;2023-07-20T16:05:07;16.73;;;10.23;;
32236;SDS011;18726;44.732;10.550;2023-07-20T16:08:11;15.10;;;9.75;;
32236;SDS011;18726;44.732;10.550;2023-07-20T16:11:15;17.02;;;9.32;;
32236;SDS011;18726;44.732;10.550;2023-07-20T16:14:18;13.18;;;8.80;;
32236;SDS011;18726;44.732;10.550;2023-07-20T16:17:22;16.58;;;9.32;;
32236;SDS011;18726;44.732;10.550;2023-07-20T16:20:26;18.58;;;10.23;;
32236;SDS011;18726;44.732;10.550;2023-07-20T16:23:30;13.13;;;9.38;;
32236;SDS011;18726;44.732;10.550;2023-07-20T16:26:34;10.88;;;9.15;;
32236;SDS011;18726;44.732;10.550;2023-07-20T16:29:38;22.10;;;9.35;;
32236;SDS011;18726;44.732;10.550;2023-07-20T16:32:41;15.48;;;9.55;;
32236;SDS011;18726;44.732;10.550;2023-07-20T16:35:46;11.40;;;8.90;;
32236;SDS011;18726;44.732;10.550;2023-07-20T16:38:50;15.07;;;10.32;;
32236;SDS011;18726;44.732;10.550;2023-07-20T16:41:54;13.73;;;10.57;;
32236;SDS011;18726;44.732;10.550;2023-07-20T16:44:57;17.75;;;9.45;;
32236;SDS011;18726;44.732;10.550;2023-07-20T16:48:01;20.48;;;10.10;;
32236;SDS011;18726;44.732;10.550;2023-07-20T16:51:05;23.83;;;10.80;;
32236;SDS011;18726;44.732;10.550;2023-07-20T16:54:09;14.35;;;9.85;;
32236;SDS011;18726;44.732;10.550;2023-07-20T16:57:14;18.27;;;10.32;;
32236;SDS011;18726;44.732;10.550;2023-07-20T17:00:17;22.85;;;10.70;;
32236;SDS011;18726;44.732;10.550;2023-07-20T17:03:21;18.42;;;10.65;;
32236;SDS011;18726;44.732;10.550;2023-07-20T17:06:25;18.13;;;10.82;;
32236;SDS011;18726;44.732;10.550;2023-07-20T17:09:29;24.23;;;10.70;;
32236;SDS011;18726;44.732;10.550;2023-07-20T17:12:38;16.67;;;9.93;;
32236;SDS011;18726;44.732;10.550;2023-07-20T17:15:46;21.42;;;10.85;;
32236;SDS011;18726;44.732;10.550;2023-07-20T17:18:53;22.10;;;10.93;;
32236;SDS011;18726;44.732;10.550;2023-07-20T17:21:56;13.95;;;10.02;;
32236;SDS011;18726;44.732;10.550;2023-07-20T17:25:01;17.95;;;10.75;;
32236;SDS011;18726;44.732;10.550;2023-07-20T17:28:05;15.70;;;10.00;;
32236;SDS011;18726;44.732;10.550;2023-07-20T17:31:08;16.27;;;10.07;;
32236;SDS011;18726;44.732;10.550;2023-07-20T17:34:12;17.38;;;11.27;;
32236;SDS011;18726;44.732;10.550;2023-07-20T17:37:15;14.18;;;11.82;;
32236;SDS011;18726;44.732;10.550;2023-07-20T17:40:20;18.27;;;11.63;;
32236;SDS011;18726;44.732;10.550;2023-07-20T17:43:25;22.90;;;10.20;;
32236;SDS011;18726;44.732;10.550;2023-07-20T17:46:28;18.58;;;10.55;;
32236;SDS011;18726;44.732;10.550;2023-07-20T17:49:32;25.33;;;11.43;;
32236;SDS011;18726;44.732;10.550;2023-07-20T17:52:36;23.58;;;11.88;;
32236;SDS011;18726;44.732;10.550;2023-07-20T17:55:41;19.92;;;11.80;;
32236;SDS011;18726;44.732;10.550;2023-07-20T17:58:45;14.20;;;10.15;;
32236;SDS011;18726;44.732;10.550;2023-07-20T18:01:49;17.63;;;10.98;;
32236;SDS011;18726;44.732;10.550;2023-07-20T18:04:52;21.50;;;9.98;;
32236;SDS011;18726;44.732;10.550;2023-07-20T18:07:56;19.05;;;10.68;;
32236;SDS011;18726;44.732;10.550;2023-07-20T18:11:06;17.92;;;11.10;;
32236;SDS011;18726;44.732;10.550;2023-07-20T18:14:12;15.20;;;10.95;;
32236;SDS011;18726;44.732;10.550;2023-07-20T18:17:15;18.90;;;11.65;;
32236;SDS011;18726;44.732;10.550;2023-07-20T18:20:19;12.63;;;10.25;;
32236;SDS011;18726;44.732;10.550;2023-07-20T18:23:23;15.77;;;11.32;;
32236;SDS011;18726;44.732;10.550;2023-07-20T18:26:27;17.17;;;11.48;;
32236;SDS011;18726;44.732;10.550;2023-07-20T18:29:30;24.60;;;11.45;;